createdAt,value
2022-10-23T00:01:18.951Z,7.25
2022-10-23T00:03:46.779Z,6.78
2022-10-23T00:06:14.400Z,5.90
2022-10-23T00:08:42.028Z,5.78
2022-10-23T00:11:11.605Z,5.90
2022-10-23T00:13:38.925Z,5.90
2022-10-23T00:16:06.496Z,8.30
2022-10-23T00:18:33.837Z,7.05
2022-10-23T00:21:01.295Z,7.72
2022-10-23T00:23:28.189Z,9.90
2022-10-23T00:25:55.084Z,8.38
2022-10-23T00:28:21.990Z,8.48
2022-10-23T00:30:48.946Z,7.60
2022-10-23T00:33:15.912Z,7.85
2022-10-23T00:35:43.254Z,6.32
2022-10-23T00:38:11.000Z,7.00
2022-10-23T00:40:39.679Z,8.80
2022-10-23T00:43:07.487Z,9.63
2022-10-23T00:45:34.626Z,9.07
2022-10-23T00:48:02.354Z,6.12
2022-10-23T00:50:32.141Z,5.72
2022-10-23T00:53:01.557Z,5.65
2022-10-23T00:55:29.217Z,5.90
2022-10-23T00:57:56.395Z,5.65
2022-10-23T01:00:26.214Z,6.12
2022-10-23T01:02:53.704Z,5.50
2022-10-23T01:05:24.662Z,6.15
2022-10-23T01:08:00.041Z,5.05
2022-10-23T01:10:40.752Z,5.20
2022-10-23T01:13:34.557Z,5.30
2022-10-23T01:16:21.606Z,5.93
2022-10-23T01:18:56.474Z,5.97
2022-10-23T01:21:58.758Z,5.25
2022-10-23T01:25:03.311Z,5.18
2022-10-23T01:27:43.187Z,5.93
2022-10-23T01:30:12.851Z,5.57
2022-10-23T01:32:51.660Z,7.28
2022-10-23T01:35:33.051Z,6.43
2022-10-23T01:38:18.056Z,8.25
2022-10-23T01:40:49.634Z,7.45
2022-10-23T01:43:29.392Z,8.88
2022-10-23T01:46:03.273Z,8.93
2022-10-23T01:48:30.551Z,10.40
2022-10-23T01:51:00.147Z,8.27
2022-10-23T01:53:30.856Z,6.85
2022-10-23T01:55:59.776Z,6.50
2022-10-23T01:58:27.229Z,5.95
2022-10-23T02:00:57.399Z,6.20
2022-10-23T02:03:24.945Z,5.90
2022-10-23T02:05:51.880Z,5.65
2022-10-23T02:08:18.834Z,5.50
2022-10-23T02:11:09.404Z,5.47
2022-10-23T02:14:03.742Z,4.70
2022-10-23T02:16:37.608Z,5.00
2022-10-23T02:19:31.776Z,5.03
2022-10-23T02:22:08.600Z,4.87
2022-10-23T02:24:58.913Z,4.97
2022-10-23T02:27:42.355Z,4.53
2022-10-23T02:30:11.734Z,4.15
2022-10-23T02:32:45.477Z,4.68
2022-10-23T02:35:12.789Z,4.15
2022-10-23T02:37:39.952Z,4.28
2022-10-23T02:40:09.757Z,4.55
2022-10-23T02:42:43.903Z,4.05
2022-10-23T02:45:28.705Z,4.37
2022-10-23T02:48:33.881Z,5.20
2022-10-23T02:51:10.189Z,4.28
2022-10-23T02:53:49.554Z,11.57
2022-10-23T02:56:21.099Z,3.70
2022-10-23T02:58:56.814Z,3.67
2022-10-23T03:01:29.677Z,3.90
2022-10-23T03:04:01.405Z,3.92
2022-10-23T03:06:28.252Z,3.55
2022-10-23T03:08:59.900Z,3.70
2022-10-23T03:11:26.803Z,3.50
2022-10-23T03:13:53.753Z,3.17
2022-10-23T03:16:20.591Z,3.40
2022-10-23T03:18:47.503Z,3.40
2022-10-23T03:21:14.340Z,3.62
2022-10-23T03:23:41.199Z,4.40
2022-10-23T03:26:09.126Z,4.50
2022-10-23T03:28:36.068Z,4.40
2022-10-23T03:31:03.691Z,8.45
2022-10-23T03:33:31.184Z,4.50
2022-10-23T03:35:58.048Z,7.25
2022-10-23T03:38:24.902Z,5.32
2022-10-23T03:40:51.906Z,6.45
2022-10-23T03:43:18.795Z,5.55
2022-10-23T03:45:45.640Z,4.00
2022-10-23T03:48:12.699Z,4.22
2022-10-23T03:50:39.533Z,4.65
2022-10-23T03:53:06.380Z,4.30
2022-10-23T03:55:33.230Z,4.72
2022-10-23T03:58:00.146Z,5.72
2022-10-23T04:00:26.980Z,4.75
2022-10-23T04:02:53.960Z,5.90
2022-10-23T04:05:20.818Z,7.65
2022-10-23T04:07:47.665Z,5.03
2022-10-23T04:10:14.518Z,5.10
2022-10-23T04:12:41.571Z,3.60
2022-10-23T04:15:09.104Z,4.75
2022-10-23T04:17:35.954Z,5.35
2022-10-23T04:20:02.791Z,6.22
2022-10-23T04:22:29.618Z,4.93
2022-10-23T04:27:23.254Z,3.25
2022-10-23T04:29:50.574Z,4.40
2022-10-23T04:32:17.866Z,3.80
2022-10-23T04:37:11.375Z,3.65
2022-10-23T04:42:04.917Z,3.28
2022-10-23T04:44:31.788Z,3.17
2022-10-23T04:46:58.645Z,3.20
2022-10-23T04:49:25.507Z,3.00
2022-10-23T04:51:52.396Z,3.00
2022-10-23T04:54:19.256Z,2.78
2022-10-23T04:56:46.188Z,3.17
2022-10-23T04:59:13.176Z,3.10
2022-10-23T05:01:40.137Z,3.50
2022-10-23T05:04:07.085Z,3.55
2022-10-23T05:06:33.930Z,3.10
2022-10-23T05:09:00.785Z,3.03
2022-10-23T05:11:27.648Z,5.47
2022-10-23T05:13:54.498Z,3.87
2022-10-23T05:17:02.928Z,3.50
2022-10-23T05:19:33.921Z,5.97
2022-10-23T05:22:00.985Z,7.00
2022-10-23T05:24:27.810Z,7.47
2022-10-23T05:26:54.730Z,4.68
2022-10-23T05:29:21.582Z,4.82
2022-10-23T05:31:55.006Z,7.55
2022-10-23T05:34:23.093Z,6.97
2022-10-23T05:36:50.029Z,7.25
2022-10-23T05:39:17.150Z,7.30
2022-10-23T05:41:44.037Z,7.37
2022-10-23T05:44:10.952Z,6.20
2022-10-23T05:46:42.274Z,5.40
2022-10-23T05:49:09.145Z,4.78
2022-10-23T05:51:40.241Z,3.90
2022-10-23T05:54:10.377Z,3.50
2022-10-23T05:56:41.714Z,2.90
2022-10-23T05:59:09.041Z,2.70
2022-10-23T06:01:37.056Z,3.05
2022-10-23T06:04:04.902Z,2.80
2022-10-23T06:06:31.754Z,2.67
2022-10-23T06:08:58.608Z,2.90
2022-10-23T06:11:25.522Z,2.58
2022-10-23T06:13:52.479Z,2.08
2022-10-23T06:16:22.853Z,1.98
2022-10-23T06:18:49.688Z,1.70
2022-10-23T06:21:16.602Z,1.87
2022-10-23T06:23:44.457Z,1.70
2022-10-23T06:26:12.934Z,1.90
2022-10-23T06:28:40.071Z,2.00
2022-10-23T06:31:08.094Z,1.92
2022-10-23T06:33:34.960Z,1.77
2022-10-23T06:36:02.706Z,1.85
2022-10-23T06:38:29.716Z,1.90
2022-10-23T06:40:57.048Z,1.70
2022-10-23T06:43:23.957Z,1.92
2022-10-23T06:45:50.847Z,1.50
2022-10-23T06:48:17.694Z,1.42
2022-10-23T06:50:44.567Z,1.60
2022-10-23T06:53:12.587Z,1.42
2022-10-23T06:55:42.621Z,1.67
2022-10-23T06:58:11.011Z,1.50
2022-10-23T07:00:39.020Z,1.37
2022-10-23T07:03:06.385Z,1.55
2022-10-23T07:05:33.306Z,1.73
2022-10-23T07:08:00.159Z,1.73
2022-10-23T07:10:27.408Z,1.92
2022-10-23T07:12:54.534Z,1.80
2022-10-23T07:15:21.375Z,1.70
2022-10-23T07:17:48.223Z,2.00
2022-10-23T07:20:15.142Z,1.90
2022-10-23T07:22:42.228Z,1.90
2022-10-23T07:25:09.524Z,1.85
2022-10-23T07:27:38.111Z,1.92
2022-10-23T07:30:05.402Z,2.10
2022-10-23T07:32:32.250Z,2.00
2022-10-23T07:34:59.326Z,2.00
2022-10-23T07:37:26.210Z,1.80
2022-10-23T07:39:53.096Z,2.10
2022-10-23T07:42:19.963Z,1.80
2022-10-23T07:44:46.811Z,1.80
2022-10-23T07:47:13.684Z,1.60
2022-10-23T07:49:40.556Z,1.65
2022-10-23T07:52:07.484Z,1.60
2022-10-23T07:54:34.437Z,1.80
2022-10-23T07:57:01.331Z,1.80
2022-10-23T07:59:28.200Z,1.80
2022-10-23T08:01:58.068Z,1.70
2022-10-23T08:04:25.337Z,1.75
2022-10-23T08:06:52.519Z,1.80
2022-10-23T08:09:19.396Z,1.85
2022-10-23T08:11:46.245Z,1.65
2022-10-23T08:14:13.139Z,1.70
2022-10-23T08:16:40.334Z,1.80
2022-10-23T08:19:08.003Z,2.10
2022-10-23T08:21:34.876Z,1.87
2022-10-23T08:24:01.750Z,1.83
2022-10-23T08:26:31.873Z,2.40
2022-10-23T08:28:59.478Z,2.87
2022-10-23T08:31:26.657Z,2.08
2022-10-23T08:33:53.550Z,2.62
2022-10-23T08:36:22.904Z,2.10
2022-10-23T08:38:50.398Z,2.17
2022-10-23T08:41:44.416Z,2.30
2022-10-23T08:44:24.659Z,1.52
2022-10-23T08:47:06.041Z,1.50
2022-10-23T08:49:35.904Z,1.80
2022-10-23T08:52:14.036Z,1.50
2022-10-23T08:55:03.605Z,1.67
2022-10-23T08:57:40.070Z,1.45
2022-10-23T09:00:15.090Z,1.50
2022-10-23T09:02:50.175Z,1.50
2022-10-23T09:05:42.618Z,1.50
2022-10-23T09:08:28.109Z,1.65
2022-10-23T09:11:27.279Z,1.40
2022-10-23T09:14:25.292Z,1.10
2022-10-23T09:19:27.467Z,1.73
2022-10-23T09:21:55.107Z,2.25
2022-10-23T09:24:23.900Z,1.60
2022-10-23T09:26:52.559Z,1.27
2022-10-23T09:29:24.247Z,0.90
2022-10-23T09:31:56.339Z,0.57
2022-10-23T09:34:26.564Z,0.90
2022-10-23T09:37:01.834Z,0.75
2022-10-23T09:39:33.673Z,1.20
2022-10-23T09:42:02.620Z,1.20
2022-10-23T09:44:32.101Z,1.10
2022-10-23T09:47:11.383Z,1.00
2022-10-23T09:49:40.822Z,1.20
2022-10-23T09:52:10.690Z,1.40
2022-10-23T09:54:39.444Z,1.20
2022-10-23T09:57:25.114Z,1.25
2022-10-23T09:59:54.263Z,1.33
2022-10-23T10:02:28.328Z,1.35
2022-10-23T10:04:55.361Z,0.90
2022-10-23T10:07:25.654Z,1.40
2022-10-23T10:09:56.978Z,1.20
2022-10-23T10:12:23.751Z,1.70
2022-10-23T10:15:07.329Z,1.80
2022-10-23T10:17:51.181Z,1.73
2022-10-23T10:20:27.191Z,1.33
2022-10-23T10:23:02.617Z,1.10
2022-10-23T10:25:43.246Z,1.65
2022-10-23T10:28:19.063Z,1.37
2022-10-23T10:31:16.530Z,1.35
2022-10-23T10:34:22.292Z,1.40
2022-10-23T10:36:58.104Z,1.55
2022-10-23T10:39:39.845Z,1.27
2022-10-23T10:42:42.948Z,1.30
2022-10-23T10:45:34.646Z,1.33
2022-10-23T10:48:26.567Z,1.50
2022-10-23T10:51:01.126Z,1.52
2022-10-23T10:53:49.768Z,1.77
2022-10-23T10:56:19.244Z,2.10
2022-10-23T10:58:51.170Z,2.20
2022-10-23T11:01:31.477Z,2.30
2022-10-23T11:04:39.823Z,2.40
2022-10-23T11:07:20.957Z,2.60
2022-10-23T11:09:48.099Z,2.50
2022-10-23T11:12:18.308Z,2.30
2022-10-23T11:14:45.453Z,2.28
2022-10-23T11:17:39.210Z,2.45
2022-10-23T11:20:32.303Z,2.47
2022-10-23T11:23:32.731Z,2.17
2022-10-23T11:25:59.519Z,2.33
2022-10-23T11:28:59.358Z,2.03
2022-10-23T11:31:44.172Z,2.83
2022-10-23T11:34:34.340Z,2.30
2022-10-23T11:37:01.831Z,2.20
2022-10-23T11:39:30.622Z,2.60
2022-10-23T11:41:59.882Z,2.33
2022-10-23T11:44:39.949Z,2.80
2022-10-23T11:47:39.613Z,2.65
2022-10-23T11:50:07.313Z,2.55
2022-10-23T11:52:42.054Z,2.70
2022-10-23T11:55:20.777Z,2.85
2022-10-23T11:58:05.422Z,3.00
2022-10-23T12:00:34.582Z,2.67
2022-10-23T12:03:02.154Z,2.40
2022-10-23T12:05:38.585Z,3.15
2022-10-23T12:08:07.965Z,3.75
2022-10-23T12:10:36.742Z,4.40
2022-10-23T12:13:06.403Z,3.65
2022-10-23T12:15:37.098Z,3.83
2022-10-23T12:18:15.798Z,3.92
2022-10-23T12:20:45.883Z,4.10
2022-10-23T12:23:33.909Z,4.00
2022-10-23T12:26:07.053Z,4.30
2022-10-23T12:28:39.846Z,4.03
2022-10-23T12:31:34.016Z,4.62
2022-10-23T12:34:19.065Z,3.67
2022-10-23T12:37:13.549Z,4.25
2022-10-23T12:39:40.938Z,4.62
2022-10-23T12:42:20.181Z,4.70
2022-10-23T12:45:01.101Z,4.43
2022-10-23T12:47:29.372Z,3.60
2022-10-23T12:49:56.345Z,4.07
2022-10-23T12:52:25.445Z,4.30
2022-10-23T12:54:52.360Z,3.47
2022-10-23T12:57:24.154Z,4.20
2022-10-23T12:59:52.022Z,3.00
2022-10-23T13:02:24.287Z,2.35
2022-10-23T13:04:53.231Z,2.70
2022-10-23T13:07:22.941Z,2.33
2022-10-23T13:09:49.855Z,2.30
2022-10-23T13:12:24.541Z,2.20
2022-10-23T13:15:17.495Z,3.92
2022-10-23T13:17:59.194Z,2.87
2022-10-23T13:20:28.091Z,3.37
2022-10-23T13:23:33.528Z,3.80
2022-10-23T13:26:02.390Z,3.28
2022-10-23T13:28:50.218Z,3.37
2022-10-23T13:31:17.001Z,3.22
2022-10-23T13:33:46.246Z,3.55
2022-10-23T13:36:16.733Z,3.47
2022-10-23T13:38:59.000Z,3.30
2022-10-23T13:41:27.591Z,3.50
2022-10-23T13:43:54.823Z,4.65
2022-10-23T13:46:24.614Z,5.05
2022-10-23T13:48:51.783Z,5.60
2022-10-23T13:51:25.927Z,6.47
2022-10-23T13:53:53.204Z,5.32
2022-10-23T13:56:21.779Z,5.45
2022-10-23T13:58:49.314Z,5.70
2022-10-23T14:01:25.125Z,5.50
2022-10-23T14:03:52.954Z,6.65
2022-10-23T14:06:19.957Z,9.50
2022-10-23T14:08:46.878Z,9.40
2022-10-23T14:13:47.480Z,8.13
2022-10-23T14:16:16.043Z,7.47
2022-10-23T14:18:43.273Z,7.53
2022-10-23T14:21:13.014Z,7.43
2022-10-23T14:23:39.902Z,7.20
2022-10-23T14:26:08.991Z,8.85
2022-10-23T14:28:35.883Z,8.20
2022-10-23T14:31:07.926Z,8.13
2022-10-23T14:33:34.889Z,7.15
2022-10-23T14:36:01.916Z,6.75
2022-10-23T14:38:29.130Z,7.00
2022-10-23T14:40:55.997Z,6.50
2022-10-23T14:43:23.942Z,6.87
2022-10-23T14:45:50.882Z,6.95
2022-10-23T14:48:17.871Z,6.35
2022-10-23T14:50:46.791Z,5.80
2022-10-23T14:53:14.199Z,6.43
2022-10-23T14:55:41.123Z,6.68
2022-10-23T14:58:08.074Z,6.28
2022-10-23T15:00:34.935Z,6.50
2022-10-23T15:03:01.909Z,7.45
2022-10-23T15:05:28.776Z,5.45
2022-10-23T15:07:56.624Z,6.50
2022-10-23T15:10:23.592Z,6.90
2022-10-23T15:12:50.435Z,6.90
2022-10-23T15:15:17.336Z,7.22
2022-10-23T15:17:44.232Z,6.05
2022-10-23T15:20:11.276Z,7.72
2022-10-23T15:22:38.130Z,8.30
2022-10-23T15:25:05.473Z,7.28
2022-10-23T15:27:32.341Z,7.07
2022-10-23T15:29:59.265Z,7.40
2022-10-23T15:32:26.173Z,7.72
2022-10-23T15:34:53.935Z,7.43
2022-10-23T15:37:20.836Z,6.40
2022-10-23T15:39:47.744Z,7.00
2022-10-23T15:42:14.750Z,5.47
2022-10-23T15:44:41.805Z,5.37
2022-10-23T15:47:08.736Z,4.82
2022-10-23T15:49:35.878Z,4.65
2022-10-23T15:52:24.309Z,5.80
2022-10-23T15:54:51.169Z,4.60
2022-10-23T15:57:18.052Z,5.47
2022-10-23T15:59:44.891Z,4.87
2022-10-23T16:02:12.202Z,5.03
2022-10-23T16:04:39.165Z,4.60
2022-10-23T16:07:07.255Z,4.68
2022-10-23T16:09:34.120Z,4.15
2022-10-23T16:12:01.044Z,4.20
2022-10-23T16:14:27.935Z,4.30
2022-10-23T16:16:54.788Z,4.12
2022-10-23T16:19:21.778Z,3.97
2022-10-23T16:21:48.703Z,3.78
2022-10-23T16:24:15.573Z,4.10
2022-10-23T16:26:42.591Z,4.20
2022-10-23T16:29:11.106Z,4.20
2022-10-23T16:31:38.145Z,4.45
2022-10-23T16:34:05.618Z,5.07
2022-10-23T16:36:33.101Z,5.37
2022-10-23T16:39:03.260Z,5.15
2022-10-23T16:41:30.103Z,4.50
2022-10-23T16:43:57.125Z,3.95
2022-10-23T16:46:24.141Z,4.00
2022-10-23T16:48:52.097Z,4.37
2022-10-23T16:51:21.266Z,4.40
2022-10-23T16:53:48.787Z,5.40
2022-10-23T16:56:18.523Z,5.25
2022-10-23T16:58:45.546Z,6.22
2022-10-23T17:01:14.279Z,5.78
2022-10-23T17:03:43.563Z,5.78
2022-10-23T17:06:12.703Z,5.50
2022-10-23T17:08:40.547Z,5.18
2022-10-23T17:11:11.089Z,6.22
2022-10-23T17:13:40.532Z,6.30
2022-10-23T17:16:13.177Z,7.47
2022-10-23T17:18:43.715Z,7.37
2022-10-23T17:21:12.477Z,7.20
2022-10-23T17:23:39.461Z,7.20
2022-10-23T17:26:12.087Z,7.05
2022-10-23T17:28:41.830Z,7.18
2022-10-23T17:31:19.829Z,7.12
2022-10-23T17:33:47.996Z,7.97
2022-10-23T17:36:16.203Z,9.63
2022-10-23T17:38:46.340Z,8.90
2022-10-23T17:41:15.832Z,8.13
2022-10-23T17:43:43.239Z,8.77
2022-10-23T17:46:12.065Z,8.68
2022-10-23T17:48:39.823Z,9.32
2022-10-23T17:51:12.371Z,9.43
2022-10-23T17:53:41.374Z,9.07
2022-10-23T17:56:11.282Z,8.82
2022-10-23T17:58:38.280Z,8.60
2022-10-23T18:01:10.145Z,9.85
2022-10-23T18:03:38.176Z,10.07
2022-10-23T18:06:12.833Z,10.20
2022-10-23T18:08:42.665Z,10.35
2022-10-23T18:13:47.189Z,9.02
2022-10-23T18:16:14.378Z,9.50
2022-10-23T18:18:42.743Z,10.80
2022-10-23T18:21:10.537Z,10.82
2022-10-23T18:23:37.593Z,11.20
2022-10-23T18:26:05.432Z,12.32
2022-10-23T18:28:32.832Z,12.07
2022-10-23T18:30:59.682Z,12.32
2022-10-23T18:33:26.876Z,12.73
2022-10-23T18:35:53.814Z,12.20
2022-10-23T18:38:20.677Z,12.57
2022-10-23T18:40:53.962Z,11.52
2022-10-23T18:43:41.983Z,11.80
2022-10-23T18:46:08.052Z,12.30
2022-10-23T18:48:35.723Z,12.90
2022-10-23T18:51:02.623Z,12.37
2022-10-23T18:53:29.594Z,11.60
2022-10-23T18:55:56.499Z,12.23
2022-10-23T18:58:23.364Z,11.60
2022-10-23T19:00:50.288Z,12.15
2022-10-23T19:09:28.359Z,12.25
2022-10-23T19:14:41.728Z,11.75
2022-10-23T19:17:18.372Z,11.38
2022-10-23T19:19:48.546Z,12.10
2022-10-23T19:22:17.575Z,12.52
2022-10-23T19:24:48.476Z,13.38
2022-10-23T19:27:15.569Z,13.10
2022-10-23T19:29:45.246Z,12.98
2022-10-23T19:32:12.341Z,13.62
2022-10-23T19:34:39.300Z,14.38
2022-10-23T19:37:06.226Z,13.25
2022-10-23T19:39:33.129Z,14.75
2022-10-23T19:54:31.752Z,13.57
2022-10-23T19:56:58.843Z,15.60
2022-10-23T19:59:25.698Z,15.60
2022-10-23T20:01:52.920Z,15.70
2022-10-23T20:04:19.935Z,18.17
2022-10-23T20:06:47.690Z,14.23
2022-10-23T20:09:14.566Z,14.43
2022-10-23T20:11:41.590Z,12.85
2022-10-23T20:14:08.443Z,12.18
2022-10-23T20:16:37.390Z,12.73
2022-10-23T20:19:07.156Z,13.48
2022-10-23T20:21:41.886Z,13.25
2022-10-23T20:24:10.469Z,12.18
2022-10-23T20:26:40.537Z,12.70
2022-10-23T20:29:07.447Z,11.82
2022-10-23T20:31:36.566Z,11.52
2022-10-23T20:34:03.580Z,10.57
2022-10-23T20:36:35.638Z,10.13
2022-10-23T20:39:05.571Z,9.93
2022-10-23T20:41:33.877Z,10.15
2022-10-23T20:44:25.692Z,9.30
2022-10-23T20:46:53.196Z,10.00
2022-10-23T20:49:20.450Z,10.77
2022-10-23T20:51:55.339Z,10.77
2022-10-23T20:54:27.012Z,9.68
2022-10-23T20:56:53.895Z,10.82
2022-10-23T20:59:20.936Z,9.77
2022-10-23T21:01:50.002Z,10.95
2022-10-23T21:04:22.324Z,10.20
2022-10-23T21:07:10.868Z,9.85
2022-10-23T21:09:39.241Z,10.30
2022-10-23T21:14:42.238Z,9.98
2022-10-23T21:17:11.072Z,10.40
2022-10-23T21:19:39.365Z,10.15
2022-10-23T21:22:06.239Z,8.98
2022-10-23T21:24:33.287Z,9.90
2022-10-23T21:27:00.225Z,10.35
2022-10-23T21:29:27.111Z,8.73
2022-10-23T21:31:58.233Z,10.20
2022-10-23T21:34:26.188Z,9.63
2022-10-23T21:37:11.957Z,10.20
2022-10-23T21:39:39.179Z,15.50
2022-10-23T21:42:06.099Z,18.92
2022-10-23T21:44:32.974Z,18.83
2022-10-23T21:46:59.900Z,19.25
2022-10-23T21:49:26.784Z,19.62
2022-10-23T21:51:55.297Z,20.20
2022-10-23T21:54:22.637Z,22.48
2022-10-23T21:56:51.245Z,21.90
2022-10-23T21:59:20.492Z,24.55
2022-10-23T22:01:48.697Z,20.88
2022-10-23T22:04:19.519Z,27.75
2022-10-23T22:06:48.081Z,18.73
2022-10-23T22:09:19.087Z,20.55
2022-10-23T22:11:46.110Z,17.70
2022-10-23T22:14:32.148Z,14.45
2022-10-23T22:16:59.141Z,9.05
2022-10-23T22:19:26.237Z,9.38
2022-10-23T22:21:53.127Z,9.82
2022-10-23T22:24:20.382Z,6.93
2022-10-23T22:26:50.008Z,8.90
2022-10-23T22:29:19.491Z,8.02
2022-10-23T22:31:49.669Z,9.07
2022-10-23T22:34:48.318Z,10.13
2022-10-23T22:37:14.849Z,9.98
2022-10-23T22:39:41.833Z,10.40
2022-10-23T22:42:09.070Z,11.25
2022-10-23T22:44:36.115Z,13.25
2022-10-23T22:47:03.367Z,11.43
2022-10-23T22:49:30.233Z,11.10
2022-10-23T22:51:57.132Z,12.25
2022-10-23T22:54:24.047Z,10.15
2022-10-23T22:56:50.954Z,11.27
2022-10-23T22:59:17.872Z,11.48
2022-10-23T23:01:46.651Z,12.30
2022-10-23T23:07:06.813Z,19.37
2022-10-23T23:09:36.833Z,17.48
2022-10-23T23:12:04.042Z,15.00
2022-10-23T23:14:30.903Z,14.65
2022-10-23T23:16:57.840Z,15.10
2022-10-23T23:19:26.724Z,14.90
2022-10-23T23:21:58.032Z,14.32
2022-10-23T23:24:25.573Z,13.10
2022-10-23T23:26:52.649Z,17.15
2022-10-23T23:29:19.833Z,15.05
2022-10-23T23:31:46.810Z,14.13
2022-10-23T23:34:13.711Z,16.70
2022-10-23T23:36:41.400Z,17.77
2022-10-23T23:39:08.260Z,16.15
2022-10-23T23:41:35.127Z,18.20
2022-10-23T23:44:01.991Z,11.50
2022-10-23T23:46:28.960Z,13.38
2022-10-23T23:48:55.892Z,14.30
2022-10-23T23:51:24.187Z,12.63
2022-10-23T23:53:51.633Z,11.30
2022-10-23T23:56:19.587Z,12.63
2022-10-23T23:58:46.486Z,15.30
